Tomer Revivo

Scout - Hapoel Tel Aviv
3 Dez 2028
Sonntag
Verarbeitung

Persönlichkeit

Anpassungsfähigkeit (4) Ehrgeiz (11) Kontroverse (15) Loyalität (1) Druck (11) Professionalität (5) Fairness (18) Temperament (8)

Profil

Trainerstil Demokratisch
Lizenz Kontinentale B
Entschlossenheit 6
Menschenführung 9
Motivation 11
Disziplin 5
Arbeitszufriedenheit
100%
Ermüdung
0%
Rolle Scout
Gehalt 51.6K p/W
Vertrag 14.03.2029

Leistung

Verhalten Gut
Trainingseffektivität
34%
Spielerentwicklung
35%
Verletzungsprävention
55%
Taktische Umsetzung
20%

Letzte Ereignisse

Nahm an einer Scouting-Besprechung teil jetzt
Nahm an einer Scouting-Besprechung teil jetzt
Nahm an einer Scouting-Besprechung teil jetzt
Nahm an einer Scouting-Besprechung teil jetzt
Nahm an einer Scouting-Besprechung teil 7T her
Nahm an einer Scouting-Besprechung teil 7T her
Spiel beobachtet 7T her
Spiel beobachtet 7T her

Aktuell beobachtet

109
Spieler Verein Status Fähigkeit Vertrauen Beobachtet Zuletzt beobachtet Letzte Stimme
Gideon Manaseh Ikorodu City Aktiv 96 / 95 40% 1 02.09.2028 -
Kamaldeen Atiemo Wa All Stars Aktiv 96 / 102 40% 2 21.08.2028 -
Hosea Michael Remo Stars Verloren 103 / 91 40% 2 21.08.2028 -
Nicolò Moranduzzo Renate Aktiv 80 / 102 40% 1 14.08.2028 -
Federico Matarán Giana Erminio Verloren 117 / 112 40% 1 14.08.2028 -
Daniel Banjaqui Benfica Aktiv 118 / 130 40% 7 03.07.2028 -
Stanislav Bukatov Salyut Aktiv 87 / 76 40% 1 03.07.2028 -
Luca Williams-Barnett Walsall Aktiv 112 / 126 40% 6 27.06.2028 -
Francisco Fernandes Porto Aktiv 99 / 122 40% 2 19.06.2028 -
Andrey Ivlev Nizhniy Novgorod Aktiv 97 / 124 40% 2 12.06.2028 -
Romuald Sawadogo Hapoel Raanana Aktiv 108 / 100 55% 1 12.06.2028 -
Celías Ingenthron Platense Aktiv 98 / 117 40% 1 12.06.2028 -
Olivier Leroux Mouscron Aktiv 112 / 119 40% 2 02.06.2028 -
Bernardo Lima Porto Aktiv 100 / 128 40% 4 02.06.2028 -
Pedro Mendes Modena Aktiv 133 / 132 40% 1 01.06.2028 -
Stephen Humphrys Bradford City Aktiv 126 / 123 40% 1 01.06.2028 -
Camillo Tavernelli Arezzo Aktiv 133 / 129 40% 1 31.05.2028 Mehr Infos nötig
Charlie Kelman Barnsley Aktiv 128 / 119 40% 1 31.05.2028 Mehr Infos nötig
Jake Evans Crewe Alexandra Aktiv 122 / 130 40% 6 29.05.2028 -
Eduardo Fernandes Benfica Aktiv 109 / 126 40% 2 29.05.2028 -
Tomás Peixoto Porto Aktiv 102 / 110 40% 4 28.05.2028 -
Kofi Duffour Cherepovets Aktiv 71 / 94 40% 1 28.05.2028 -
Ben Broggio Mansfield Town Aktiv 118 / 104 40% 3 24.05.2028 -
Igor Tyjon Barrow AFC Aktiv 132 / 111 40% 5 20.05.2028 -
İsak Vural Audace Cerignola Aktiv 105 / 123 40% 1 20.05.2028 -
Gabe Forsyth Colchester United Aktiv 103 / 107 40% 4 16.05.2028 -
Luca Scarlato Perugia Aktiv 85 / 100 40% 1 16.05.2028 -
Isaque Obolon Aktiv 116 / 136 40% 3 13.05.2028 -
Luca Meirelles Kudrivka Aktiv 127 / 136 40% 5 10.05.2028 -
Josh Nichols Oldham Athletic Aktiv 106 / 117 40% 2 03.05.2028 -
Paulo Iago Sporting CP Aktiv 103 / 113 40% 2 03.05.2028 -
Gabriel Mec Feirense Aktiv 141 / 120 40% 6 01.05.2028 -
Kerim Alajbegović Modena Aktiv 145 / 147 40% 4 30.04.2028 -
João Abreu Porto Aktiv 90 / 109 40% 3 29.04.2028 -
Sayed Abu Farchi Maccabi Tel Aviv Aktiv 137 / 120 40% 3 29.04.2028 -
Nana Nuhu WAFA Aktiv 98 / 90 40% 3 28.04.2028 -
Eduard Ihnatov Ospitaletto Aktiv 118 / 113 40% 1 25.04.2028 -
André Miranda Porto Aktiv 121 / 118 40% 5 23.04.2028 -
Rafael Camacho Sporting CP Aktiv 118 / 122 40% 1 22.04.2028 -
Oscar Schwartau Norwich City Aktiv 142 / 122 40% 1 22.04.2028 -
Otto Stange Borussia Mönchengladbach Aktiv 115 / 135 40% 1 20.04.2028 -
Gilbert Bandama Hapoel Kfar Saba Aktiv 115 / 118 51% 3 13.04.2028 Beobachten
Giovanni Cantizano Fulham Aktiv 115 / 118 40% 2 11.04.2028 -
Luke Brooke-Smith Chesterfield Aktiv 83 / 108 40% 1 05.04.2028 -
Kwandile Gumemde US Bougouni Aktiv 89 / 82 40% 1 02.04.2028 -
Abubakar Adams Aduana Stars Aktiv 85 / 92 40% 1 02.04.2028 -
Alphadjo Cissé Lecce Aktiv 147 / 124 40% 2 01.04.2028 -
Vincenzo Damiano Atalanta Aktiv 89 / 104 40% 1 30.03.2028 -
Jan Bürger Northampton Town Aktiv 123 / 126 40% 5 28.03.2028 -
Ryan Kavuma-McQueen Accrington Stanley Aktiv 131 / 128 40% 3 27.03.2028 -
Leo Pecover Swindon Town Aktiv 100 / 100 40% 2 27.03.2028 -
Amin Nabizada Exeter City Aktiv 104 / 112 40% 2 25.03.2028 -
Will Dobson Newcastle Jets Aktiv 119 / 106 40% 2 23.03.2028 -
Jorthy Mokio ADO Den Haag Aktiv 147 / 135 40% 2 19.03.2028 -
Henrique Carmo Sochi Aktiv 129 / 120 40% 2 18.03.2028 -
Oskar Pietuszewski Estrela da Amadora Aktiv 120 / 143 40% 1 18.03.2028 -
Matvey Ivanov Zenit Aktiv 67 / 83 40% 2 14.03.2028 -
Lander Astiazarán Real Sociedad Aktiv 123 / 116 40% 2 14.03.2028 -
Ibrahim Fullah Charlton Athletic Aktiv 108 / 134 40% 1 08.03.2028 -
Fletcher Boyd Accrington Stanley Aktiv 100 / 99 40% 1 28.02.2028 -
Amine Boukamir Charleroi Aktiv 122 / 115 40% 3 26.02.2028 -
Omar Khedr Gillingham Aktiv 128 / 115 40% 1 23.02.2028 -
Tshiamo Masisi Unisport Bafang Aktiv 91 / 103 40% 2 22.02.2028 -
Denis Pokotylo Chelyabinsk Aktiv 84 / 101 40% 1 18.02.2028 -
Shea Lacey Crystal Palace Aktiv 121 / 144 40% 1 11.02.2028 -
Ryan McAidoo Oldham Athletic Aktiv 130 / 142 40% 1 08.02.2028 -
Gabriele Bertolini Vicenza Aktiv 118 / 110 40% 1 07.02.2028 -
Martim Cunha Porto Aktiv 107 / 110 40% 2 03.02.2028 -
Thijs Kraaijeveld USM Alger Verhandlung 118 / 114 40% 1 01.02.2028 -
Esquerdinha Notts County Aktiv 111 / 132 40% 1 31.01.2028 -
Francisco Machis Llaneros Aktiv 80 / 103 40% 1 18.01.2028 -
Tyler Fletcher Rotherham United Aktiv 118 / 118 40% 1 18.01.2028 -
José Cortés Maccabi Petach Tikva Aktiv 100 / 121 51% 1 17.01.2028 -
Olivier Mambwa Young Boys Aktiv 97 / 115 40% 1 17.01.2028 -
Noah Fenyő Ujpest Aktiv 113 / 113 40% 1 08.01.2028 -
Alexis Cuello San Lorenzo Aktiv 142 / 136 40% 1 06.01.2028 -
Olalekan Adeleke Remo Stars Aktiv 97 / 89 40% 1 22.06.2027 -
Charlie Gray Fleetwood Town Aktiv 102 / 100 40% 6 15.06.2027 -
Andrea Bertoncini Triestina Aktiv 97 / 95 40% 3 15.06.2027 -
Callum O'Hare Sheffield United Aktiv 145 / 136 40% 1 02.06.2027 -
Victor Hernandez Santa Fe Aktiv 118 / 122 40% 3 30.05.2027 -
Edwin Asamoah Berekum Chelsea Aktiv 88 / 78 40% 4 29.05.2027 -
Sascha Britschgi AC Milan Aktiv 109 / 135 40% 3 26.05.2027 -
Kazunari Kita Real Sociedad Aktiv 100 / 107 40% 4 24.05.2027 -
Tiago Freitas Benfica Aktiv 104 / 128 40% 1 20.05.2027 -
Ahmed Akinyele Remo Stars Aktiv 107 / 91 40% 2 18.05.2027 -
Caleb Yirenkyi Coventry City Aktiv 144 / 144 40% 4 10.05.2027 -
Chari Giwa US Bougouni Aktiv 95 / 82 40% 1 10.05.2027 -
Godwin Oham Warri Wolves Aktiv 94 / 83 40% 1 08.05.2027 -
Pedro Vian Seewald Dolomiti Bellunesi Aktiv 108 / 87 40% 1 07.05.2027 -
Riley Owen Stevenage Aktiv 85 / 120 40% 2 06.05.2027 -
Mpho Khethang FC Diarra Aktiv 76 / 91 40% 1 02.05.2027 -
Samuele di Benedetto Twente Aktiv 107 / 109 40% 2 01.05.2027 -
Joseph Namatane FC Metz Aktiv 83 / 100 40% 1 30.04.2027 -
Jenson Jones Walsall Aktiv 90 / 101 40% 3 28.04.2027 -
Konta Ismaily Aktiv 73 / 92 40% 1 26.04.2027 -
Zane Albarus Shrewsbury Town Aktiv 84 / 111 40% 1 24.04.2027 -
Bade Aluko Leicester City Aktiv 115 / 121 40% 1 24.04.2027 -
Tommaso Cecotti Carpi Aktiv 86 / 95 40% 3 23.04.2027 -
Bence Dárdai VfL Wolfsburg Aktiv 132 / 137 40% 1 22.04.2027 -
Wessel Kuhn PSV Aktiv 89 / 103 40% 1 22.04.2027 -
Leandro Martins Benfica Aktiv 102 / 87 40% 1 17.04.2027 -
Alessandro Zoboletti Sambenedettese Aktiv 81 / 84 40% 1 11.04.2027 -
Kiani Inge Groningen Aktiv 109 / 127 40% 1 08.04.2027 -
Maldini Kacurri Grimsby Town Aktiv 77 / 101 40% 2 05.04.2027 -
Ezra Mayers West Ham United Aktiv 110 / 136 40% 1 02.04.2027 -
James Dornelly Peterborough United Aktiv 99 / 105 40% 1 22.03.2027 -
David Ozoh Derby County Aktiv 109 / 112 40% 1 18.03.2027 -
Kristoffer Lund Birmingham Aktiv 137 / 112 40% 1 02.08.2026 -